sensor_id;sensor_type;location;lat;lon;timestamp;temperature;humidity
42979;DHT22;28616;44.746;19.678;2023-02-28T00:00:36;1.80;99.90
42979;DHT22;28616;44.746;19.678;2023-02-28T00:03:03;1.80;99.90
42979;DHT22;28616;44.746;19.678;2023-02-28T00:05:29;1.80;99.90
42979;DHT22;28616;44.746;19.678;2023-02-28T00:07:55;1.80;99.90
42979;DHT22;28616;44.746;19.678;2023-02-28T00:10:31;1.80;99.90
42979;DHT22;28616;44.746;19.678;2023-02-28T00:13:04;1.80;99.90
42979;DHT22;28616;44.746;19.678;2023-02-28T00:15:31;1.80;99.90
42979;DHT22;28616;44.746;19.678;2023-02-28T00:17:57;1.90;99.90
42979;DHT22;28616;44.746;19.678;2023-02-28T00:20:24;1.80;99.90
42979;DHT22;28616;44.746;19.678;2023-02-28T00:22:51;1.80;99.90
42979;DHT22;28616;44.746;19.678;2023-02-28T00:25:20;1.80;99.90
42979;DHT22;28616;44.746;19.678;2023-02-28T00:27:47;1.80;99.90
42979;DHT22;28616;44.746;19.678;2023-02-28T00:30:15;1.80;99.90
42979;DHT22;28616;44.746;19.678;2023-02-28T00:32:42;1.80;99.90
42979;DHT22;28616;44.746;19.678;2023-02-28T00:35:08;1.80;99.90
42979;DHT22;28616;44.746;19.678;2023-02-28T00:37:34;1.90;99.90
42979;DHT22;28616;44.746;19.678;2023-02-28T00:40:00;1.90;99.90
42979;DHT22;28616;44.746;19.678;2023-02-28T00:42:26;1.80;99.90
42979;DHT22;28616;44.746;19.678;2023-02-28T00:44:52;1.80;99.90
42979;DHT22;28616;44.746;19.678;2023-02-28T00:47:18;1.80;99.90
42979;DHT22;28616;44.746;19.678;2023-02-28T00:49:44;1.80;99.90
42979;DHT22;28616;44.746;19.678;2023-02-28T00:52:09;1.80;99.90
42979;DHT22;28616;44.746;19.678;2023-02-28T00:54:35;1.80;99.90
42979;DHT22;28616;44.746;19.678;2023-02-28T00:57:01;1.80;99.90
42979;DHT22;28616;44.746;19.678;2023-02-28T00:59:27;1.80;99.90
42979;DHT22;28616;44.746;19.678;2023-02-28T01:01:52;1.80;99.90
42979;DHT22;28616;44.746;19.678;2023-02-28T01:04:18;1.80;99.90
42979;DHT22;28616;44.746;19.678;2023-02-28T01:06:44;1.80;99.90
42979;DHT22;28616;44.746;19.678;2023-02-28T01:09:10;1.70;99.90
42979;DHT22;28616;44.746;19.678;2023-02-28T01:11:36;1.70;99.90
42979;DHT22;28616;44.746;19.678;2023-02-28T01:14:02;1.70;99.90
42979;DHT22;28616;44.746;19.678;2023-02-28T01:16:29;1.70;99.90
42979;DHT22;28616;44.746;19.678;2023-02-28T01:18:55;1.70;99.90
42979;DHT22;28616;44.746;19.678;2023-02-28T01:21:22;1.80;99.90
42979;DHT22;28616;44.746;19.678;2023-02-28T01:23:48;1.80;99.90
42979;DHT22;28616;44.746;19.678;2023-02-28T01:26:18;1.80;99.90
42979;DHT22;28616;44.746;19.678;2023-02-28T01:28:44;1.80;99.90
42979;DHT22;28616;44.746;19.678;2023-02-28T01:31:11;1.80;99.90
42979;DHT22;28616;44.746;19.678;2023-02-28T01:33:37;1.80;99.90
42979;DHT22;28616;44.746;19.678;2023-02-28T01:36:06;1.80;99.90
42979;DHT22;28616;44.746;19.678;2023-02-28T01:38:32;1.70;99.90
42979;DHT22;28616;44.746;19.678;2023-02-28T01:40:58;1.70;99.90
42979;DHT22;28616;44.746;19.678;2023-02-28T01:46:17;1.70;99.90
42979;DHT22;28616;44.746;19.678;2023-02-28T01:48:50;1.70;99.90
42979;DHT22;28616;44.746;19.678;2023-02-28T01:54:07;1.70;99.90
42979;DHT22;28616;44.746;19.678;2023-02-28T01:56:49;1.80;99.90
42979;DHT22;28616;44.746;19.678;2023-02-28T01:59:24;1.80;99.90
42979;DHT22;28616;44.746;19.678;2023-02-28T02:01:53;1.80;99.90
42979;DHT22;28616;44.746;19.678;2023-02-28T02:04:20;1.80;99.90
42979;DHT22;28616;44.746;19.678;2023-02-28T02:06:47;1.80;99.90
42979;DHT22;28616;44.746;19.678;2023-02-28T02:09:13;1.90;99.90
42979;DHT22;28616;44.746;19.678;2023-02-28T02:11:41;1.90;99.90
42979;DHT22;28616;44.746;19.678;2023-02-28T02:17:00;1.90;99.90
42979;DHT22;28616;44.746;19.678;2023-02-28T02:30:35;2.00;99.90
42979;DHT22;28616;44.746;19.678;2023-02-28T02:36:02;1.90;99.90
42979;DHT22;28616;44.746;19.678;2023-02-28T02:38:54;2.00;99.90
42979;DHT22;28616;44.746;19.678;2023-02-28T02:41:34;1.90;99.90
42979;DHT22;28616;44.746;19.678;2023-02-28T02:46:33;1.90;99.90
42979;DHT22;28616;44.746;19.678;2023-02-28T02:49:04;1.90;99.90
42979;DHT22;28616;44.746;19.678;2023-02-28T02:51:32;2.00;99.90
42979;DHT22;28616;44.746;19.678;2023-02-28T02:54:07;2.00;99.90
42979;DHT22;28616;44.746;19.678;2023-02-28T02:56:34;2.00;99.90
42979;DHT22;28616;44.746;19.678;2023-02-28T02:59:04;2.00;99.90
42979;DHT22;28616;44.746;19.678;2023-02-28T03:01:32;1.90;99.90
42979;DHT22;28616;44.746;19.678;2023-02-28T03:04:06;1.90;99.90
42979;DHT22;28616;44.746;19.678;2023-02-28T03:06:32;1.80;99.90
42979;DHT22;28616;44.746;19.678;2023-02-28T03:08:59;1.90;99.90
42979;DHT22;28616;44.746;19.678;2023-02-28T03:11:25;1.90;99.90
42979;DHT22;28616;44.746;19.678;2023-02-28T03:17:08;1.90;99.90
42979;DHT22;28616;44.746;19.678;2023-02-28T03:22:46;1.90;99.90
42979;DHT22;28616;44.746;19.678;2023-02-28T03:25:28;2.00;99.90
42979;DHT22;28616;44.746;19.678;2023-02-28T03:30:55;1.90;99.90
42979;DHT22;28616;44.746;19.678;2023-02-28T03:36:13;1.90;99.90
42979;DHT22;28616;44.746;19.678;2023-02-28T03:38:54;1.90;99.90
42979;DHT22;28616;44.746;19.678;2023-02-28T03:41:29;1.90;99.90
42979;DHT22;28616;44.746;19.678;2023-02-28T03:44:00;1.90;99.90
42979;DHT22;28616;44.746;19.678;2023-02-28T03:46:31;1.80;99.90
42979;DHT22;28616;44.746;19.678;2023-02-28T03:49:09;1.90;99.90
42979;DHT22;28616;44.746;19.678;2023-02-28T03:51:38;1.90;99.90
42979;DHT22;28616;44.746;19.678;2023-02-28T03:54:34;1.80;99.90
42979;DHT22;28616;44.746;19.678;2023-02-28T03:57:04;1.80;99.90
42979;DHT22;28616;44.746;19.678;2023-02-28T03:59:39;1.90;99.90
42979;DHT22;28616;44.746;19.678;2023-02-28T04:02:07;1.90;99.90
42979;DHT22;28616;44.746;19.678;2023-02-28T04:04:33;1.80;99.90
42979;DHT22;28616;44.746;19.678;2023-02-28T04:07:08;1.90;99.90
42979;DHT22;28616;44.746;19.678;2023-02-28T04:09:36;1.90;99.90
42979;DHT22;28616;44.746;19.678;2023-02-28T04:12:02;1.80;99.90
42979;DHT22;28616;44.746;19.678;2023-02-28T04:14:28;1.80;99.90
42979;DHT22;28616;44.746;19.678;2023-02-28T04:16:54;1.80;99.90
42979;DHT22;28616;44.746;19.678;2023-02-28T04:19:20;1.80;99.90
42979;DHT22;28616;44.746;19.678;2023-02-28T04:21:50;1.70;99.90
42979;DHT22;28616;44.746;19.678;2023-02-28T04:24:27;1.80;99.90
42979;DHT22;28616;44.746;19.678;2023-02-28T04:26:55;1.80;99.90
42979;DHT22;28616;44.746;19.678;2023-02-28T04:31:48;1.80;99.90
42979;DHT22;28616;44.746;19.678;2023-02-28T04:34:14;1.80;99.90
42979;DHT22;28616;44.746;19.678;2023-02-28T04:36:40;1.80;99.90
42979;DHT22;28616;44.746;19.678;2023-02-28T04:39:05;1.80;99.90
42979;DHT22;28616;44.746;19.678;2023-02-28T04:41:31;1.80;99.90
42979;DHT22;28616;44.746;19.678;2023-02-28T04:43:57;1.90;99.90
42979;DHT22;28616;44.746;19.678;2023-02-28T04:46:23;1.90;99.90
42979;DHT22;28616;44.746;19.678;2023-02-28T04:48:48;1.90;99.90
42979;DHT22;28616;44.746;19.678;2023-02-28T04:51:16;1.80;99.90
42979;DHT22;28616;44.746;19.678;2023-02-28T04:53:43;1.80;99.90
42979;DHT22;28616;44.746;19.678;2023-02-28T04:56:12;1.70;99.90
42979;DHT22;28616;44.746;19.678;2023-02-28T04:58:39;1.70;99.90
42979;DHT22;28616;44.746;19.678;2023-02-28T05:03:42;1.80;99.90
42979;DHT22;28616;44.746;19.678;2023-02-28T05:06:09;1.80;99.90
42979;DHT22;28616;44.746;19.678;2023-02-28T05:08:35;1.80;99.90
42979;DHT22;28616;44.746;19.678;2023-02-28T05:11:01;1.80;99.90
42979;DHT22;28616;44.746;19.678;2023-02-28T05:13:28;1.80;99.90
42979;DHT22;28616;44.746;19.678;2023-02-28T05:15:54;1.70;99.90
42979;DHT22;28616;44.746;19.678;2023-02-28T05:18:20;1.80;99.90
42979;DHT22;28616;44.746;19.678;2023-02-28T05:20:46;1.80;99.90
42979;DHT22;28616;44.746;19.678;2023-02-28T05:23:13;1.80;99.90
42979;DHT22;28616;44.746;19.678;2023-02-28T05:25:39;1.80;99.90
42979;DHT22;28616;44.746;19.678;2023-02-28T05:28:05;1.90;99.90
42979;DHT22;28616;44.746;19.678;2023-02-28T05:30:32;1.90;99.90
42979;DHT22;28616;44.746;19.678;2023-02-28T05:32:58;1.90;99.90
42979;DHT22;28616;44.746;19.678;2023-02-28T05:35:24;1.90;99.90
42979;DHT22;28616;44.746;19.678;2023-02-28T05:37:50;1.90;99.90
42979;DHT22;28616;44.746;19.678;2023-02-28T05:40:16;1.80;99.90
42979;DHT22;28616;44.746;19.678;2023-02-28T05:42:42;1.80;99.90
42979;DHT22;28616;44.746;19.678;2023-02-28T05:45:08;1.80;99.90
42979;DHT22;28616;44.746;19.678;2023-02-28T05:47:35;1.80;99.90
42979;DHT22;28616;44.746;19.678;2023-02-28T05:50:01;1.80;99.90
42979;DHT22;28616;44.746;19.678;2023-02-28T05:52:28;1.80;99.90
42979;DHT22;28616;44.746;19.678;2023-02-28T05:54:55;1.80;99.90
42979;DHT22;28616;44.746;19.678;2023-02-28T05:57:21;1.80;99.90
42979;DHT22;28616;44.746;19.678;2023-02-28T05:59:47;1.80;99.90
42979;DHT22;28616;44.746;19.678;2023-02-28T06:02:15;1.80;99.90
42979;DHT22;28616;44.746;19.678;2023-02-28T06:04:42;1.90;99.90
42979;DHT22;28616;44.746;19.678;2023-02-28T06:07:09;1.90;99.90
42979;DHT22;28616;44.746;19.678;2023-02-28T06:09:35;1.90;99.90
42979;DHT22;28616;44.746;19.678;2023-02-28T06:12:02;1.90;99.90
42979;DHT22;28616;44.746;19.678;2023-02-28T06:14:35;1.90;99.90
42979;DHT22;28616;44.746;19.678;2023-02-28T06:17:02;1.90;99.90
42979;DHT22;28616;44.746;19.678;2023-02-28T06:19:28;1.90;99.90
42979;DHT22;28616;44.746;19.678;2023-02-28T06:21:56;1.90;99.90
42979;DHT22;28616;44.746;19.678;2023-02-28T06:24:24;1.90;99.90
42979;DHT22;28616;44.746;19.678;2023-02-28T06:26:50;1.90;99.90
42979;DHT22;28616;44.746;19.678;2023-02-28T06:29:17;1.90;99.90
42979;DHT22;28616;44.746;19.678;2023-02-28T06:31:47;1.90;99.90
42979;DHT22;28616;44.746;19.678;2023-02-28T06:34:13;1.90;99.90
42979;DHT22;28616;44.746;19.678;2023-02-28T06:36:42;1.90;99.90
42979;DHT22;28616;44.746;19.678;2023-02-28T06:39:09;1.90;99.90
42979;DHT22;28616;44.746;19.678;2023-02-28T06:41:35;1.90;99.90
42979;DHT22;28616;44.746;19.678;2023-02-28T06:44:12;1.90;99.90
42979;DHT22;28616;44.746;19.678;2023-02-28T06:46:40;2.00;99.90
42979;DHT22;28616;44.746;19.678;2023-02-28T06:49:06;1.90;99.90
42979;DHT22;28616;44.746;19.678;2023-02-28T06:51:35;1.90;99.90
42979;DHT22;28616;44.746;19.678;2023-02-28T06:54:00;1.90;99.90
42979;DHT22;28616;44.746;19.678;2023-02-28T06:56:26;1.90;99.90
42979;DHT22;28616;44.746;19.678;2023-02-28T06:58:52;1.90;99.90
42979;DHT22;28616;44.746;19.678;2023-02-28T07:01:18;1.90;99.90
42979;DHT22;28616;44.746;19.678;2023-02-28T07:03:44;1.90;99.90
42979;DHT22;28616;44.746;19.678;2023-02-28T07:06:10;2.00;99.90
42979;DHT22;28616;44.746;19.678;2023-02-28T07:08:36;2.00;99.90
42979;DHT22;28616;44.746;19.678;2023-02-28T07:11:02;2.00;99.90
42979;DHT22;28616;44.746;19.678;2023-02-28T07:13:28;2.00;99.90
42979;DHT22;28616;44.746;19.678;2023-02-28T07:15:56;2.10;99.90
42979;DHT22;28616;44.746;19.678;2023-02-28T07:18:22;2.20;99.90
42979;DHT22;28616;44.746;19.678;2023-02-28T07:20:48;2.20;99.90
42979;DHT22;28616;44.746;19.678;2023-02-28T07:23:14;2.20;99.90
42979;DHT22;28616;44.746;19.678;2023-02-28T07:25:39;2.20;99.90
42979;DHT22;28616;44.746;19.678;2023-02-28T07:28:05;2.20;99.90
42979;DHT22;28616;44.746;19.678;2023-02-28T07:30:31;2.30;99.90
42979;DHT22;28616;44.746;19.678;2023-02-28T07:32:56;2.20;99.90
42979;DHT22;28616;44.746;19.678;2023-02-28T07:35:22;2.20;99.90
42979;DHT22;28616;44.746;19.678;2023-02-28T07:37:48;2.30;99.90
42979;DHT22;28616;44.746;19.678;2023-02-28T07:40:14;2.20;99.90
42979;DHT22;28616;44.746;19.678;2023-02-28T07:42:41;2.30;99.90
42979;DHT22;28616;44.746;19.678;2023-02-28T07:45:08;2.30;99.90
42979;DHT22;28616;44.746;19.678;2023-02-28T07:47:40;2.30;99.90
42979;DHT22;28616;44.746;19.678;2023-02-28T07:50:08;2.40;99.90
42979;DHT22;28616;44.746;19.678;2023-02-28T07:52:34;2.40;99.90
42979;DHT22;28616;44.746;19.678;2023-02-28T07:55:01;2.30;99.90
42979;DHT22;28616;44.746;19.678;2023-02-28T07:57:27;2.30;99.90
42979;DHT22;28616;44.746;19.678;2023-02-28T07:59:52;2.30;99.90
42979;DHT22;28616;44.746;19.678;2023-02-28T08:02:18;2.30;99.90
42979;DHT22;28616;44.746;19.678;2023-02-28T08:04:44;2.40;99.90
42979;DHT22;28616;44.746;19.678;2023-02-28T08:07:12;2.40;99.90
42979;DHT22;28616;44.746;19.678;2023-02-28T08:09:40;2.50;99.90
42979;DHT22;28616;44.746;19.678;2023-02-28T08:12:07;2.50;99.90
42979;DHT22;28616;44.746;19.678;2023-02-28T08:14:34;2.60;99.90
42979;DHT22;28616;44.746;19.678;2023-02-28T08:16:59;2.40;99.90
42979;DHT22;28616;44.746;19.678;2023-02-28T08:19:25;2.40;99.90
42979;DHT22;28616;44.746;19.678;2023-02-28T08:21:51;2.50;99.90
42979;DHT22;28616;44.746;19.678;2023-02-28T08:24:17;2.50;99.90
42979;DHT22;28616;44.746;19.678;2023-02-28T08:26:43;2.50;99.90
42979;DHT22;28616;44.746;19.678;2023-02-28T08:29:08;2.50;99.90
42979;DHT22;28616;44.746;19.678;2023-02-28T08:31:34;2.50;99.90
42979;DHT22;28616;44.746;19.678;2023-02-28T08:34:05;2.50;99.90
42979;DHT22;28616;44.746;19.678;2023-02-28T08:36:31;2.40;99.90
42979;DHT22;28616;44.746;19.678;2023-02-28T08:38:57;2.40;99.90
42979;DHT22;28616;44.746;19.678;2023-02-28T08:41:25;2.40;99.90
42979;DHT22;28616;44.746;19.678;2023-02-28T08:43:51;2.40;99.90
42979;DHT22;28616;44.746;19.678;2023-02-28T08:46:17;2.50;99.90
42979;DHT22;28616;44.746;19.678;2023-02-28T08:48:43;2.50;99.90
42979;DHT22;28616;44.746;19.678;2023-02-28T08:51:14;2.60;99.90
42979;DHT22;28616;44.746;19.678;2023-02-28T08:53:44;2.60;99.90
42979;DHT22;28616;44.746;19.678;2023-02-28T08:56:15;2.50;99.90
42979;DHT22;28616;44.746;19.678;2023-02-28T08:58:43;2.60;99.90
42979;DHT22;28616;44.746;19.678;2023-02-28T09:01:14;2.50;99.90
42979;DHT22;28616;44.746;19.678;2023-02-28T09:03:41;2.60;99.90
42979;DHT22;28616;44.746;19.678;2023-02-28T09:06:12;2.60;99.90
42979;DHT22;28616;44.746;19.678;2023-02-28T09:08:38;2.70;99.90
42979;DHT22;28616;44.746;19.678;2023-02-28T09:11:05;2.60;99.90
42979;DHT22;28616;44.746;19.678;2023-02-28T09:13:31;2.60;99.90
42979;DHT22;28616;44.746;19.678;2023-02-28T09:16:02;2.60;99.90
42979;DHT22;28616;44.746;19.678;2023-02-28T09:18:29;2.60;99.90
42979;DHT22;28616;44.746;19.678;2023-02-28T09:20:55;2.60;99.90
42979;DHT22;28616;44.746;19.678;2023-02-28T09:23:21;2.60;99.90
42979;DHT22;28616;44.746;19.678;2023-02-28T09:25:54;2.70;99.90
42979;DHT22;28616;44.746;19.678;2023-02-28T09:28:20;2.70;99.90
42979;DHT22;28616;44.746;19.678;2023-02-28T09:30:52;2.80;99.90
42979;DHT22;28616;44.746;19.678;2023-02-28T09:33:18;2.70;99.90
42979;DHT22;28616;44.746;19.678;2023-02-28T09:35:49;2.80;99.90
42979;DHT22;28616;44.746;19.678;2023-02-28T09:38:16;2.70;99.90
42979;DHT22;28616;44.746;19.678;2023-02-28T09:40:54;2.80;99.90
42979;DHT22;28616;44.746;19.678;2023-02-28T09:43:23;2.90;99.90
42979;DHT22;28616;44.746;19.678;2023-02-28T09:48:51;3.00;99.90
42979;DHT22;28616;44.746;19.678;2023-02-28T09:51:27;3.00;99.90
42979;DHT22;28616;44.746;19.678;2023-02-28T09:53:54;3.00;99.90
42979;DHT22;28616;44.746;19.678;2023-02-28T09:56:28;3.00;99.90
42979;DHT22;28616;44.746;19.678;2023-02-28T10:09:50;3.20;99.90
42979;DHT22;28616;44.746;19.678;2023-02-28T10:12:20;3.20;99.90
42979;DHT22;28616;44.746;19.678;2023-02-28T10:14:48;3.20;99.90
42979;DHT22;28616;44.746;19.678;2023-02-28T10:17:21;3.10;99.90
42979;DHT22;28616;44.746;19.678;2023-02-28T10:20:01;3.20;99.90
42979;DHT22;28616;44.746;19.678;2023-02-28T10:22:50;3.10;99.90
42979;DHT22;28616;44.746;19.678;2023-02-28T10:25:28;3.10;99.90
42979;DHT22;28616;44.746;19.678;2023-02-28T10:28:21;3.10;99.90
42979;DHT22;28616;44.746;19.678;2023-02-28T10:30:50;3.10;99.90
42979;DHT22;28616;44.746;19.678;2023-02-28T10:35:45;3.10;99.90
42979;DHT22;28616;44.746;19.678;2023-02-28T10:38:25;3.10;99.90
42979;DHT22;28616;44.746;19.678;2023-02-28T10:40:51;3.20;99.90
42979;DHT22;28616;44.746;19.678;2023-02-28T10:43:28;3.20;99.90
42979;DHT22;28616;44.746;19.678;2023-02-28T10:50:59;3.00;99.90
42979;DHT22;28616;44.746;19.678;2023-02-28T10:53:31;3.10;99.90
42979;DHT22;28616;44.746;19.678;2023-02-28T11:00:55;3.10;99.90
42979;DHT22;28616;44.746;19.678;2023-02-28T11:03:31;3.10;99.90
42979;DHT22;28616;44.746;19.678;2023-02-28T11:05:57;3.10;99.90
42979;DHT22;28616;44.746;19.678;2023-02-28T11:08:23;3.10;99.90
42979;DHT22;28616;44.746;19.678;2023-02-28T11:10:58;3.10;99.90
42979;DHT22;28616;44.746;19.678;2023-02-28T11:13:35;3.10;99.90
42979;DHT22;28616;44.746;19.678;2023-02-28T11:16:04;3.20;99.90
42979;DHT22;28616;44.746;19.678;2023-02-28T11:18:52;3.20;99.90
42979;DHT22;28616;44.746;19.678;2023-02-28T11:23:51;3.10;99.90
42979;DHT22;28616;44.746;19.678;2023-02-28T11:26:40;3.10;99.90
42979;DHT22;28616;44.746;19.678;2023-02-28T11:29:27;3.10;99.90
42979;DHT22;28616;44.746;19.678;2023-02-28T11:32:12;3.10;99.90
42979;DHT22;28616;44.746;19.678;2023-02-28T11:34:40;3.10;99.90
42979;DHT22;28616;44.746;19.678;2023-02-28T11:37:27;3.20;99.90
42979;DHT22;28616;44.746;19.678;2023-02-28T11:39:54;3.30;99.90
42979;DHT22;28616;44.746;19.678;2023-02-28T11:45:23;3.30;99.90
42979;DHT22;28616;44.746;19.678;2023-02-28T11:50:45;3.30;99.90
42979;DHT22;28616;44.746;19.678;2023-02-28T12:01:23;3.40;99.90
42979;DHT22;28616;44.746;19.678;2023-02-28T12:04:04;3.40;99.90
42979;DHT22;28616;44.746;19.678;2023-02-28T12:17:47;3.40;99.90
42979;DHT22;28616;44.746;19.678;2023-02-28T12:20:40;3.50;99.90
42979;DHT22;28616;44.746;19.678;2023-02-28T12:32:14;3.50;99.90
42979;DHT22;28616;44.746;19.678;2023-02-28T12:34:41;3.50;99.90
42979;DHT22;28616;44.746;19.678;2023-02-28T12:37:14;3.50;99.90
42979;DHT22;28616;44.746;19.678;2023-02-28T12:39:46;3.50;99.90
42979;DHT22;28616;44.746;19.678;2023-02-28T12:45:00;3.50;99.90
42979;DHT22;28616;44.746;19.678;2023-02-28T12:47:26;3.50;99.90
42979;DHT22;28616;44.746;19.678;2023-02-28T12:50:03;3.60;99.90
42979;DHT22;28616;44.746;19.678;2023-02-28T12:52:56;3.60;99.90
42979;DHT22;28616;44.746;19.678;2023-02-28T12:55:40;3.60;99.90
42979;DHT22;28616;44.746;19.678;2023-02-28T13:00:38;3.50;99.90
42979;DHT22;28616;44.746;19.678;2023-02-28T13:11:02;3.70;99.90
42979;DHT22;28616;44.746;19.678;2023-02-28T13:13:29;3.70;99.90
42979;DHT22;28616;44.746;19.678;2023-02-28T13:16:05;3.70;99.90
42979;DHT22;28616;44.746;19.678;2023-02-28T13:20:58;3.80;99.90
42979;DHT22;28616;44.746;19.678;2023-02-28T13:24:03;3.70;99.90
42979;DHT22;28616;44.746;19.678;2023-02-28T13:34:37;3.80;99.90
42979;DHT22;28616;44.746;19.678;2023-02-28T13:48:04;3.60;99.90
42979;DHT22;28616;44.746;19.678;2023-02-28T13:50:36;3.60;99.90
42979;DHT22;28616;44.746;19.678;2023-02-28T14:06:50;3.60;99.90
42979;DHT22;28616;44.746;19.678;2023-02-28T14:09:35;3.60;99.90
